Blue Oak Ranch Reserve, California Weather observations

Data are for 10 minute period ending at time listed.
 Day   Time   Solar   Ave.   Ave.  Ave.  Vector  Max.   Baro.   Total    
  of    of     Rad.   Air    Rel.  Wind   Wind   Wind  Press.  Precip.   
Year   Day            Temp.  Hum.  Speed  Dir.   Gust                    
2018   (PST)  Kw/m2    F      %     mph   deg.    mph    mb.     in.     
-------------------------------------------------------------------------
  48   10:00   0.50   60.7    33    5.1   238     8.8   953.2    0.00 
  48   10:10   0.52   61.1    31    5.0   262     8.6   953.4    0.00 
  48   10:20   0.54   61.2    30    5.1   231     7.3   953.3    0.00 
  48   10:30   0.56   61.8    30    4.7   225     6.4   953.4    0.00 
  48   10:40   0.59   62.0    30    4.6   230     7.5   953.4    0.00 
  48   10:50   0.60   62.5    30    5.0   240     8.2   953.4    0.00 
  48   11:00   0.62   62.3    30    5.7   233     9.1   953.3    0.00 
  48   11:10   0.64   61.6    31    5.7   235     9.2   953.3    0.00 
  48   11:20   0.65   61.1    32    6.4   217    10.5   953.3    0.00 
  48   11:30   0.66   61.5    31    5.2   219     8.8   953.2    0.00 
  48   11:40   0.67   62.5    31    5.1   227     9.1   953.1    0.00 
  48   11:50   0.68   62.4    32    4.7   219     7.9   953.0    0.00 
  48   12:00   0.69   62.9    32    4.3   222     7.1   952.9    0.00 
  48   12:10   0.69   63.5    32    5.0   230     8.4   952.8    0.00 
  48   12:20   0.69   64.3    32    4.9   248     7.5   952.8    0.00 
  48   12:30   0.69   65.4    31    3.9   252     8.1   952.6    0.00 
  48   12:40   0.69   65.4    31    5.7   232    10.0   952.6    0.00 
  48   12:50   0.69   64.4    32    6.7   234    10.1   952.4    0.00 
  48   13:00   0.69   64.9    32    6.3   241     9.9   952.3    0.00 
  48   13:10   0.66   64.8    33    6.4   240     9.6   952.1    0.00 
  48   13:20   0.66   65.2    33    6.6   243    12.6   952.0    0.00 
  48   13:30   0.66   64.4    34    6.8   265    11.2   952.0    0.00 
  48   13:40   0.65   64.4    34    6.0   248    12.2   951.9    0.00 
  48   13:50   0.64   65.1    34    6.0   269    10.8   951.7    0.00 
  48   14:00   0.63   65.1    33    6.4   249    10.8   951.7    0.00 
  48   14:10   0.62   64.9    33    5.5   263    11.1   951.6    0.00 
  48   14:20   0.60   65.0    33    4.7   261     7.9   951.5    0.00 
  48   14:30   0.59   65.9    32    5.2   248     8.8   951.4    0.00 
  48   14:40   0.56   65.9    32    4.9   258     8.6   951.3    0.00 
  48   14:50   0.54   66.1    32    6.6   235    10.2   951.0    0.00 
  48   15:00   0.52   65.2    33    7.3   236    11.9   950.9    0.00 
  48   15:10   0.49   65.1    33    7.8   253    12.1   950.9    0.00 
  48   15:20   0.47   64.6    33    6.6   255    10.2   950.9    0.00 
  48   15:30   0.44   65.5    33    6.7   259    10.2   950.9    0.00 
  48   15:40   0.41   65.3    33    6.0   248     9.6   950.8    0.00 
  48   15:50   0.38   65.0    34    6.3   254    10.2   950.8    0.00 
  48   16:00   0.34   64.7    35    6.0   257    10.2   950.7    0.00 
  48   16:10   0.31   65.5    34    6.3   268     9.6   950.7    0.00 
  48   16:20   0.28   64.9    36    6.8   266    10.3   950.7    0.00 
  48   16:30   0.24   64.2    37    7.6   277    11.0   950.7    0.00 
  48   16:40   0.21   63.0    40    8.0   285    10.5   950.6    0.00 
  48   16:50   0.18   61.7    42    7.4   287    10.3   950.4    0.00 
  48   17:00   0.15   61.1    42    7.0   285     9.4   950.2    0.00 
  48   17:10   0.12   60.5    43    5.9   279     7.8   950.1    0.00 
  48   17:20   0.08   59.8    44    4.2   278     6.9   950.0    0.00 
  48   17:30   0.06   59.1    44    3.6   277     6.1   949.9    0.00 
  48   17:40   0.02   57.4    47    2.6   282     4.2   949.8    0.00 
  48   17:50   0.01   55.2    51    1.7   314     2.5   949.6    0.00 
  48   18:00   0.01   54.1    52    1.4   316     3.1   949.6    0.00 
  48   18:10   0.00   51.9    56    0.7    21     3.0   949.7    0.00 
  48   18:20   0.00   50.7    58    0.1    42     1.2   949.8    0.00 
  48   18:30   0.00   49.5    61    1.5    54     3.0   949.8    0.00 
  48   18:40   0.00   48.2    64    1.3    26     2.3   949.9    0.00 
  48   18:50   0.00   47.4    65    0.8    45     1.9   950.0    0.00 
  48   19:00   0.00   47.0    66    1.3   296     3.4   950.0    0.00 
  48   19:10   0.00   46.6    67    0.6   302     3.1   950.1    0.00 
  48   19:20   0.00   47.0    66    0.0     0     0.0   950.1    0.00 
  48   19:30   0.00   46.2    67    0.1   257     1.0   949.9    0.00 
  48   19:40   0.00   45.5    68    0.8    13     2.0   949.9    0.00 
  48   19:50   0.00   45.2    69    0.8    39     1.6   949.9    0.00 
  48   20:00   0.00   45.0    69    0.5   279     1.7   949.9    0.00 
  48   20:10   0.00   44.7    69    0.0     0     0.0   949.8    0.00 
  48   20:20   0.00   44.5    69    0.2    29     0.9   949.8    0.00 
  48   20:30   0.00   44.4    69    0.1   275     1.2   949.8    0.00 
  48   20:40   0.00   43.9    71    0.4   287     1.6   949.8    0.00 
  48   20:50   0.00   43.7    70    0.7   295     1.6   949.7    0.00 
  48   21:00   0.00   43.9    68    0.7    66     1.5   949.6    0.00 
  48   21:10   0.00   43.7    68    0.2   247     0.9   949.5    0.00 
  48   21:20   0.00   43.5    68    0.9   296     2.3   949.5    0.00 
  48   21:30   0.00   43.5    67    0.1   318     1.2   949.5    0.00 
  48   21:40   0.00   43.3    66    0.0     0     0.0   949.4    0.00 
  48   21:50   0.00   43.2    68    0.2   279     1.1   949.4    0.00 
  48   22:00   0.00   43.0    67    0.3   352     1.5   949.4    0.00 
  48   22:10   0.00   43.3    66    0.6   289     2.0   949.3    0.00 
  48   22:20   0.00   43.3    67    0.2    79     1.2   949.3    0.00 
  48   22:30   0.00   43.1    67    0.1    66     0.7   949.3    0.00 
  48   22:40   0.00   43.6    66    0.2    88     1.3   949.3    0.00 
  48   22:50   0.00   43.1    67    0.8   296     1.8   949.3    0.00 
  48   23:00   0.00   42.9    68    0.2    81     1.0   949.2    0.00 
  48   23:10   0.00   43.2    68    0.9   290     2.2   949.3    0.00 
  48   23:20   0.00   42.8    69    1.1   308     3.3   949.3    0.00 
  48   23:30   0.00   42.6    71    0.5    88     1.5   949.3    0.00 
  48   23:40   0.00   42.5    71    0.1   106     0.9   949.3    0.00 
  48   23:50   0.00   42.2    73    0.3    93     1.2   949.3    0.00 
  49    0:00   0.00   41.9    73    0.1    10     0.6   949.3    0.00 
  49    0:10   0.00   42.3    72    0.0    89     0.7   949.1    0.00 
  49    0:20   0.00   42.3    74    0.8   329     2.0   949.1    0.00 
  49    0:30   0.00   41.5    76    1.1   298     2.6   949.1    0.00 
  49    0:40   0.00   42.0    79    1.0    77     1.8   949.0    0.00 
  49    0:50   0.00   41.7    79    0.3    87     1.8   948.9    0.00 
  49    1:00   0.00   41.3    82    0.9    50     2.3   948.8    0.00 
  49    1:10   0.00   40.7    84    1.6    58     2.3   948.7    0.00 
  49    1:20   0.00   39.8    86    0.5    62     1.5   948.7    0.00 
  49    1:30   0.00   40.0    88    0.1   323     0.9   948.6    0.00 
  49    1:40   0.00   39.4    88    2.0   299     2.9   948.5    0.00 
  49    1:50   0.00   38.5    90    1.6     6     3.3   948.5    0.00 
  49    2:00   0.00   38.9    91    0.9    47     2.9   948.3    0.00 
  49    2:10   0.00   38.7    91    1.5   301     3.2   948.3    0.00 
  49    2:20   0.00   38.4    92    1.9    62     2.8   948.1    0.00 
  49    2:30   0.00   38.1    92    2.2   296     3.5   948.1    0.00 
  49    2:40   0.00   37.7    94    0.9    34     2.1   948.0    0.00 
  49    2:50   0.00   38.4    94    1.4    55     2.6   947.9    0.00 
  49    3:00   0.00   37.9    94    1.4   295     2.5   947.8    0.00 
  49    3:10   0.00   37.9    94    0.1   274     1.6   947.6    0.00 
  49    3:20   0.00   37.9    95    1.4   301     3.6   947.5    0.00 
  49    3:30   0.00   37.9    95    0.7   103     2.0   947.5    0.00 
  49    3:40   0.00   38.0    95    1.0   268     2.3   947.5    0.00 
  49    3:50   0.00   37.6    95    1.3   309     2.8   947.7    0.00 
  49    4:00   0.00   39.2    96    3.6   302     6.2   947.8    0.00 
  49    4:10   0.00   42.4    97    7.6   306    11.8   947.9    0.00 
  49    4:20   0.00   43.3    96    5.9   305    11.3   948.1    0.00 
  49    4:30   0.00   43.4    96    5.6   307     9.6   948.3    0.00 
  49    4:40   0.00   43.4    96    4.5   313     8.6   948.4    0.00 
  49    4:50   0.00   43.3    96    3.5   314     7.3   948.3    0.00 
  49    5:00   0.00   43.2    96    5.5   296     8.8   948.2    0.00 
  49    5:10   0.00   42.9    96    4.5   292     7.9   948.2    0.00 
  49    5:20   0.00   42.7    96    6.5   297     8.9   948.3    0.00 
  49    5:30   0.00   42.5    97    3.1   312     5.5   948.3    0.00 
  49    5:40   0.00   42.4    96    2.2   121     5.8   948.0    0.00 
  49    5:50   0.00   41.5    96    2.6    83     6.4   947.6    0.00 
  49    6:00   0.00   40.5    96    3.0   259     6.3   947.6    0.00 
  49    6:10   0.00   40.5    97    3.9   288     5.8   947.9    0.00 
  49    6:20   0.00   41.2    97    1.7   276     3.6   947.7    0.00 
  49    6:30   0.00   41.4    97    5.4   278     9.8   947.9    0.00 
  49    6:40   0.00   41.2    96    5.3   296     8.5   948.2    0.00 
  49    6:50   0.00   41.2    96    4.3   306     7.9   948.2    0.00 
  49    7:00   0.00   41.3    96    3.6   296     6.9   948.2    0.00 
  49    7:10   0.01   41.5    96    5.4   297    11.2   948.1    0.00 
  49    7:20   0.01   41.6    96    4.4   293    11.4   948.0    0.00 
  49    7:30   0.01   41.8    96    6.4   291    12.8   948.1    0.00 
  49    7:40   0.02   41.8    96    6.5   294    11.7   948.1    0.00 
  49    7:50   0.01   41.9    96    4.3   283     9.1   948.1    0.00 
  49    8:00   0.03   42.0    96    6.6   290    12.0   948.1    0.00 
  49    8:10   0.03   42.1    96    6.6   298    11.8   948.2    0.00 
  49    8:20   0.02   42.2    96    7.1   278    13.0   948.2    0.00 
  49    8:30   0.01   42.1    96    6.5   293    10.4   948.3    0.00 
  49    8:40   0.02   41.9    96    5.2   303     8.8   948.4    0.00 
  49    8:50   0.06   42.0    96    5.8   298    11.1   948.4    0.00 
  49    9:00   0.07   42.3    96    6.9   306    12.6   948.4    0.00 
  49    9:10   0.09   42.7    95    5.8   323    10.6   948.4    0.00 
  49    9:20   0.08   43.0    95    5.5   304    10.4   948.5    0.00 
  49    9:30   0.07   43.2    94    6.8   294    12.0   948.5    0.00 
  49    9:40   0.12   43.3    94   10.2   288    16.1   948.5    0.00 
  49    9:50   0.18   43.2    94   10.6   294    17.0   948.5    0.00 

Return to Blue Oak Ranch Reserve graphs page.


Western Regional Climate Center,wrcc@dri.edu